Time;durP1;ratioP1;P1;durP2;ratioP2;P2;SDS_P1;SDS_P2;PMS_P1;PMS_P2;Temp;Humidity;BMP_temperature;BMP_pressure;BME280_temperature;BME280_humidity;BME280_pressure;Samples;Min_cycle;Max_cycle;Signal;HPM_P1;HPM_P2
2022/01/01 00:01:14;;;;;;;16.12;13.08;;;;;;;19.65;47.01;98211.30;1791255;79;21056;-69
2022/01/01 00:03:42;;;;;;;18.00;13.70;;;;;;;19.65;46.98;98211.83;1781566;79;21417;-70
2022/01/01 00:06:09;;;;;;;15.88;13.50;;;;;;;19.63;47.00;98220.16;1795002;79;21150;-70
2022/01/01 00:08:36;;;;;;;14.35;12.80;;;;;;;19.62;46.94;98219.91;1788459;79;20994;-69
2022/01/01 00:11:02;;;;;;;13.20;12.00;;;;;;;19.66;46.85;98226.39;1796327;79;20974;-69
2022/01/01 00:13:31;;;;;;;10.88;9.88;;;;;;;19.65;46.86;98219.92;1788467;79;37745;-69
2022/01/01 00:15:58;;;;;;;10.95;9.95;;;;;;;19.65;46.89;98234.23;1786590;79;20990;-69
2022/01/01 00:18:26;;;;;;;11.22;9.58;;;;;;;19.64;46.80;98212.36;1788817;79;21021;-70
2022/01/01 00:20:52;;;;;;;11.12;10.13;;;;;;;19.70;46.65;98225.35;1791808;79;20872;-70
2022/01/01 00:23:19;;;;;;;10.90;10.00;;;;;;;19.61;46.79;98223.66;1794493;79;20919;-68
2022/01/01 00:25:45;;;;;;;10.98;9.98;;;;;;;19.59;46.73;98210.97;1790760;79;20944;-70
2022/01/01 00:28:12;;;;;;;9.93;9.00;;;;;;;19.60;46.75;98220.70;1789469;79;20962;-70
2022/01/01 00:30:39;;;;;;;9.20;8.40;;;;;;;19.58;46.77;98224.17;1799850;79;21131;-69
2022/01/01 00:33:06;;;;;;;9.25;8.45;;;;;;;19.59;46.75;98221.77;1803856;79;20856;-69
2022/01/01 00:35:33;;;;;;;8.98;8.18;;;;;;;19.62;46.66;98221.25;1786846;79;20904;-69
2022/01/01 00:38:00;;;;;;;9.38;8.48;;;;;;;19.61;46.73;98214.22;1804701;79;20931;-70
2022/01/01 00:40:27;;;;;;;8.90;8.10;;;;;;;19.66;46.92;98216.95;1792224;79;21017;-70
2022/01/01 00:42:53;;;;;;;9.65;8.75;;;;;;;19.63;46.97;98213.98;1753238;81;21089;-70
2022/01/01 00:45:21;;;;;;;9.58;8.68;;;;;;;19.61;46.97;98221.49;1756425;81;21466;-70
2022/01/01 00:47:48;;;;;;;9.65;8.45;;;;;;;19.66;46.95;98212.91;1725577;80;20992;-70
2022/01/01 00:50:14;;;;;;;9.65;8.73;;;;;;;19.73;46.84;98206.48;1740457;82;21435;-70
2022/01/01 00:52:42;;;;;;;9.45;8.25;;;;;;;19.78;46.92;98208.69;1739564;82;20991;-70
2022/01/01 00:55:10;;;;;;;9.33;8.45;;;;;;;19.83;46.71;98211.42;1734617;82;21138;-69
2022/01/01 00:57:37;;;;;;;9.50;8.60;;;;;;;19.85;46.80;98211.96;1734996;82;20888;-69
2022/01/01 01:00:05;;;;;;;9.35;8.45;;;;;;;19.75;46.89;98213.77;1754287;81;20904;-69
2022/01/01 01:02:31;;;;;;;8.85;8.03;;;;;;;19.76;47.11;98207.32;1766498;81;20947;-69
2022/01/01 01:04:58;;;;;;;9.40;8.43;;;;;;;19.77;47.37;98203.00;1752697;80;21083;-70
2022/01/01 01:07:25;;;;;;;8.43;7.65;;;;;;;19.83;47.92;98203.84;1742705;81;21197;-69
2022/01/01 01:09:51;;;;;;;9.68;8.73;;;;;;;19.91;47.93;98215.51;1734029;80;21501;-70
2022/01/01 01:12:23;;;;;;;9.08;8.20;;;;;;;19.88;47.81;98207.40;1753263;80;21011;-69
2022/01/01 01:14:47;;;;;;;9.83;8.90;;;;;;;19.85;47.60;98213.84;1759980;81;21399;-69
2022/01/01 01:17:14;;;;;;;8.90;7.97;;;;;;;19.77;47.42;98211.09;1756773;81;21434;-69
2022/01/01 01:19:42;;;;;;;10.30;9.30;;;;;;;19.67;47.56;98206.45;1719356;82;21084;-69
2022/01/01 01:22:08;;;;;;;8.83;8.03;;;;;;;19.69;47.60;98211.58;1757748;81;20955;-69
2022/01/01 01:24:35;;;;;;;10.95;8.18;;;;;;;19.71;47.48;98208.89;1733467;82;20907;-69
2022/01/01 01:27:03;;;;;;;9.75;8.85;;;;;;;19.73;47.38;98204.05;1725440;80;20954;-69
2022/01/01 01:29:31;;;;;;;10.58;9.48;;;;;;;19.80;47.17;98213.28;1751643;81;20915;-70
2022/01/01 01:31:58;;;;;;;9.60;8.68;;;;;;;19.86;46.89;98210.08;1737460;82;21144;-70
2022/01/01 01:34:24;;;;;;;9.28;8.38;;;;;;;19.80;46.99;98196.27;1735993;82;20938;-70
2022/01/01 01:36:52;;;;;;;9.50;8.53;;;;;;;19.81;46.87;98207.35;1722070;82;20896;-70
2022/01/01 01:39:18;;;;;;;9.03;8.23;;;;;;;19.78;46.85;98205.17;1763780;81;21180;-69
2022/01/01 01:41:46;;;;;;;9.03;8.13;;;;;;;19.82;46.63;98203.03;1750149;80;20975;-69
2022/01/01 01:44:32;;;;;;;9.58;8.78;;;;;;;19.80;46.67;98201.67;1755145;81;21139;-70
2022/01/01 01:47:01;;;;;;;;;;;;;;;19.83;46.58;98201.16;1734050;80;21641;-68
2022/01/01 01:49:29;;;;;;;8.33;7.53;;;;;;;19.81;46.95;98201.95;1750275;81;20496;-69
2022/01/01 01:51:55;;;;;;;8.68;7.87;;;;;;;19.83;47.12;98202.50;1758349;81;21041;-69
2022/01/01 01:54:22;;;;;;;9.28;8.38;;;;;;;19.78;47.38;98207.86;1736881;80;20924;-69
2022/01/01 01:56:48;;;;;;;8.90;8.05;;;;;;;19.75;47.46;98201.64;1764028;80;22540;-69
2022/01/01 01:59:15;;;;;;;10.95;9.23;;;;;;;19.78;47.27;98200.59;1728362;82;20915;-69
2022/01/01 02:01:41;;;;;;;10.13;9.13;;;;;;;19.71;47.24;98202.68;1758934;81;21039;-69
2022/01/01 02:04:08;;;;;;;10.20;8.93;;;;;;;19.80;47.03;98197.63;1719861;82;21034;-68
2022/01/01 02:06:34;;;;;;;9.88;8.88;;;;;;;19.77;46.97;98204.34;1797772;78;20912;-69
2022/01/01 02:09:02;;;;;;;9.83;8.85;;;;;;;19.75;46.92;98209.73;1790019;79;20880;-69
2022/01/01 02:11:30;;;;;;;8.68;7.87;;;;;;;19.80;46.84;98207.06;1788131;78;21037;-69
2022/01/01 02:18:52;;;;;;;8.18;7.37;;;;;;;19.64;47.04;98215.06;1796715;78;20928;-71
2022/01/01 02:21:20;;;;;;;7.97;7.28;;;;;;;19.67;47.13;98209.68;1791177;78;21502;-71
2022/01/01 02:23:48;;;;;;;7.65;6.83;;;;;;;19.62;47.27;98215.86;1788241;78;20844;-70
2022/01/01 02:26:16;;;;;;;8.30;7.47;;;;;;;19.75;47.06;98225.39;1794119;79;20959;-69
2022/01/01 02:28:46;;;;;;;8.50;7.62;;;;;;;19.73;46.99;98214.84;1792414;78;20888;-69
2022/01/01 02:31:14;;;;;;;6.95;6.35;;;;;;;19.78;47.07;98220.01;1788355;78;20871;-69
2022/01/01 02:33:42;;;;;;;8.65;7.72;;;;;;;19.85;47.00;98220.59;1785851;78;21118;-69
2022/01/01 02:36:09;;;;;;;7.67;6.87;;;;;;;19.87;46.89;98223.83;1798568;79;21505;-70
2022/01/01 02:38:36;;;;;;;7.80;7.00;;;;;;;19.86;46.97;98233.02;1788563;78;20883;-70
2022/01/01 02:41:02;;;;;;;7.80;6.85;;;;;;;19.85;47.00;98225.98;1757686;80;20889;-69
2022/01/01 02:43:33;;;;;;;6.83;6.20;;;;;;;19.87;46.82;98220.61;1731902;82;21511;-69
2022/01/01 02:45:59;;;;;;;7.15;6.45;;;;;;;19.83;46.93;98226.26;1734987;82;22365;-70
2022/01/01 02:48:26;;;;;;;7.62;6.92;;;;;;;19.84;46.89;98217.07;1733989;81;20919;-69
2022/01/01 02:50:52;;;;;;;7.60;6.83;;;;;;;19.88;46.88;98222.77;1738292;82;20968;-69
2022/01/01 02:53:19;;;;;;;7.60;6.90;;;;;;;19.88;46.81;98228.17;1738079;82;21011;-69
2022/01/01 02:55:46;;;;;;;7.53;6.80;;;;;;;19.87;47.08;98227.34;1732133;82;20985;-69
2022/01/01 02:58:13;;;;;;;7.20;6.50;;;;;;;19.85;46.92;98228.16;1737109;82;21078;-70
2022/01/01 03:00:39;;;;;;;7.92;7.00;;;;;;;19.91;46.78;98239.80;1735658;82;20972;-69
2022/01/01 03:03:06;;;;;;;7.87;7.08;;;;;;;19.86;46.80;98235.19;1733014;81;20938;-69
2022/01/01 03:05:33;;;;;;;8.13;7.42;;;;;;;19.92;46.66;98238.73;1732994;81;20933;-69
2022/01/01 03:08:01;;;;;;;7.97;7.22;;;;;;;19.97;46.75;98244.17;1729761;81;21580;-69
2022/01/01 03:10:27;;;;;;;8.00;7.30;;;;;;;19.96;46.48;98249.28;1736548;81;21145;-69
2022/01/01 03:12:53;;;;;;;8.58;7.78;;;;;;;20.00;46.37;98256.59;1743288;81;20922;-70
2022/01/01 03:15:20;;;;;;;8.70;7.60;;;;;;;20.06;46.14;98249.34;1733332;82;20995;-69
2022/01/01 03:17:47;;;;;;;8.95;8.03;;;;;;;20.05;46.10;98253.13;1726038;80;21466;-71
2022/01/01 03:20:13;;;;;;;7.90;7.05;;;;;;;20.05;46.04;98257.18;1728160;82;21404;-70
2022/01/01 03:22:41;;;;;;;7.92;7.12;;;;;;;19.98;45.98;98260.09;1780954;78;20938;-69
2022/01/01 03:25:09;;;;;;;7.78;7.08;;;;;;;19.95;45.99;98263.83;1783897;78;20931;-69
2022/01/01 03:27:36;;;;;;;8.45;7.65;;;;;;;19.88;46.12;98267.30;1784468;78;20895;-68
2022/01/01 03:30:04;;;;;;;7.67;6.90;;;;;;;19.91;46.06;98262.73;1784873;78;21533;-68
2022/01/01 03:32:30;;;;;;;8.08;7.28;;;;;;;19.80;51.36;98265.89;1788997;79;21044;-69
2022/01/01 03:34:57;;;;;;;8.50;7.62;;;;;;;19.80;46.84;98262.38;1788725;79;21145;-70
2022/01/01 03:37:24;;;;;;;8.78;7.87;;;;;;;19.80;46.63;98267.77;1778739;79;20900;-68
2022/01/01 03:39:50;;;;;;;8.65;7.78;;;;;;;19.70;46.78;98270.69;1782111;78;20968;-68
2022/01/01 03:42:17;;;;;;;8.80;7.90;;;;;;;19.77;46.60;98277.20;1786388;78;20983;-69
2022/01/01 03:44:43;;;;;;;8.10;7.40;;;;;;;19.83;46.41;98277.53;1786649;79;21418;-69
2022/01/01 03:47:10;;;;;;;8.45;7.65;;;;;;;19.93;46.18;98275.43;1783159;78;21307;-69
2022/01/01 03:49:37;;;;;;;8.75;7.85;;;;;;;19.92;46.25;98284.62;1776864;78;21395;-70
2022/01/01 03:52:04;;;;;;;9.15;8.25;;;;;;;19.89;46.15;98290.00;1784351;78;20987;-69
2022/01/01 03:54:32;;;;;;;9.23;8.23;;;;;;;19.86;46.21;98283.77;1787090;78;21025;-70
2022/01/01 03:56:59;;;;;;;8.95;8.05;;;;;;;19.98;45.99;98283.03;1786732;78;20955;-70
2022/01/01 03:59:25;;;;;;;9.70;8.70;;;;;;;20.06;45.84;98281.20;1774277;79;21770;-70
2022/01/01 04:01:54;;;;;;;8.20;7.37;;;;;;;20.14;45.60;98286.65;1789435;79;21038;-69
2022/01/01 04:04:22;;;;;;;8.83;7.97;;;;;;;20.13;45.53;98289.88;1779851;78;21524;-69
2022/01/01 04:06:49;;;;;;;8.08;7.17;;;;;;;20.19;45.51;98287.50;1788910;79;20990;-69
2022/01/01 04:09:17;;;;;;;8.70;7.90;;;;;;;20.14;45.55;98284.77;1800920;78;20883;-69
2022/01/01 04:11:45;;;;;;;7.83;6.95;;;;;;;20.11;45.59;98295.27;1800032;79;21150;-69
2022/01/01 04:14:14;;;;;;;7.28;6.58;;;;;;;20.22;45.38;98295.62;1806608;78;20979;-69
2022/01/01 04:16:40;;;;;;;7.70;6.90;;;;;;;20.26;45.29;98302.14;1811100;78;20958;-69
2022/01/01 04:19:06;;;;;;;8.43;7.53;;;;;;;20.29;45.12;98301.63;1789670;79;21085;-69
2022/01/01 04:21:32;;;;;;;7.92;7.22;;;;;;;20.29;44.99;98311.08;1805341;78;21001;-70
2022/01/01 04:24:00;;;;;;;11.15;6.78;;;;;;;20.29;45.03;98316.48;1794035;78;21807;-69
2022/01/01 04:26:26;;;;;;;7.50;6.80;;;;;;;20.33;44.90;98318.39;1787065;78;20887;-69
2022/01/01 04:28:53;;;;;;;7.28;6.58;;;;;;;20.37;44.85;98315.98;1802171;79;20963;-69
2022/01/01 04:31:19;;;;;;;7.33;6.62;;;;;;;20.34;44.91;98325.95;1802618;79;20958;-70
2022/01/01 04:33:45;;;;;;;7.08;6.28;;;;;;;20.29;45.01;98325.92;1809576;78;20952;-70
2022/01/01 04:36:13;;;;;;;6.00;5.50;;;;;;;20.28;44.97;98332.42;1788092;79;21838;-69
2022/01/01 04:38:42;;;;;;;6.42;5.83;;;;;;;20.26;44.96;98339.41;1802129;78;20994;-70
2022/01/01 04:41:14;;;;;;;6.95;6.30;;;;;;;20.33;44.79;98343.25;1794460;79;20981;-70
2022/01/01 04:43:41;;;;;;;6.28;5.67;;;;;;;20.28;44.89;98349.97;1801897;78;20895;-70
2022/01/01 04:46:08;;;;;;;6.78;6.08;;;;;;;20.28;44.94;98355.37;1798311;78;20982;-69
2022/01/01 04:48:37;;;;;;;6.60;6.03;;;;;;;20.30;44.96;98363.49;1798582;79;21956;-69
2022/01/01 04:51:09;;;;;;;6.10;5.50;;;;;;;20.38;44.92;98362.20;1793892;78;21006;-68
2022/01/01 04:53:36;;;;;;;5.78;5.28;;;;;;;20.34;44.93;98359.72;1782083;78;20986;-69
2022/01/01 04:56:06;;;;;;;6.00;5.40;;;;;;;20.35;44.92;98367.29;1798039;78;20974;-68
2022/01/01 04:58:31;;;;;;;5.58;5.08;;;;;;;20.35;44.86;98364.06;1799055;78;21046;-68
2022/01/01 05:00:57;;;;;;;6.42;5.70;;;;;;;20.37;44.82;98365.14;1799464;79;21202;-69
2022/01/01 05:03:23;;;;;;;6.37;5.78;;;;;;;20.39;44.76;98369.20;1798378;79;20936;-69
2022/01/01 05:05:50;;;;;;;6.65;5.92;;;;;;;20.37;44.81;98376.77;1749871;80;20983;-69
2022/01/01 05:08:17;;;;;;;6.42;5.83;;;;;;;20.31;44.89;98375.91;1738356;82;20943;-68
2022/01/01 05:10:45;;;;;;;6.80;5.67;;;;;;;20.33;44.87;98377.80;1756559;80;21505;-69
2022/01/01 05:13:13;;;;;;;8.53;6.50;;;;;;;20.32;44.92;98382.12;1782212;79;21152;-69
2022/01/01 05:15:40;;;;;;;6.95;6.10;;;;;;;20.38;44.88;98387.85;1799828;79;20919;-68
2022/01/01 05:18:06;;;;;;;9.35;7.22;;;;;;;20.39;44.83;98390.81;1791821;79;20887;-68
2022/01/01 05:20:34;;;;;;;10.50;7.70;;;;;;;20.39;44.84;98393.52;1794282;79;21069;-69
2022/01/01 05:23:00;;;;;;;13.53;10.25;;;;;;;20.41;44.86;98394.63;1791107;79;21615;-69
2022/01/01 05:25:28;;;;;;;15.35;10.98;;;;;;;20.43;44.87;98395.17;1780053;79;21299;-72
2022/01/01 05:27:55;;;;;;;12.53;8.58;;;;;;;20.43;44.82;98399.22;1794560;79;20941;-67
2022/01/01 05:30:22;;;;;;;11.22;8.45;;;;;;;20.40;44.86;98397.86;1804238;79;21485;-68
2022/01/01 05:32:48;;;;;;;14.43;8.30;;;;;;;20.40;44.73;98405.14;1786552;79;21010;-69
2022/01/01 05:35:14;;;;;;;10.38;6.85;;;;;;;20.36;44.77;98412.97;1783855;79;20919;-69
2022/01/01 05:37:42;;;;;;;11.57;7.45;;;;;;;20.20;45.11;98412.52;1755294;81;21514;-69
2022/01/01 05:40:10;;;;;;;16.25;8.48;;;;;;;20.16;45.21;98418.97;1750570;81;20951;-69
2022/01/01 05:42:38;;;;;;;11.97;7.67;;;;;;;20.20;45.08;98422.80;1756439;80;20962;-68
2022/01/01 05:45:06;;;;;;;12.53;7.83;;;;;;;20.17;45.05;98433.28;1725456;82;20979;-68
2022/01/01 05:47:32;;;;;;;13.15;7.87;;;;;;;20.11;45.20;98443.75;1748158;81;21446;-68
2022/01/01 05:49:59;;;;;;;11.25;7.15;;;;;;;20.09;45.16;98448.06;1748831;81;21154;-71
2022/01/01 05:52:25;;;;;;;11.60;7.40;;;;;;;20.11;45.10;98449.97;1737696;82;20979;-68
2022/01/01 05:54:51;;;;;;;11.20;6.92;;;;;;;20.09;45.04;98454.82;1736998;82;21569;-68
2022/01/01 05:57:18;;;;;;;9.38;5.50;;;;;;;20.01;45.13;98466.61;1743787;81;21018;-69
2022/01/01 05:59:44;;;;;;;7.22;4.35;;;;;;;19.94;45.21;98463.30;1737420;82;20953;-69
2022/01/01 06:02:11;;;;;;;4.65;3.90;;;;;;;19.77;45.36;98479.58;1748977;81;22736;-68
2022/01/01 06:04:38;;;;;;;5.37;4.05;;;;;;;19.72;45.35;98487.62;1749163;80;21045;-68
2022/01/01 06:07:07;;;;;;;7.15;4.85;;;;;;;19.61;45.25;98489.38;1742374;81;21006;-68
2022/01/01 06:09:35;;;;;;;5.72;4.33;;;;;;;19.59;45.12;98500.14;1768812;78;21025;-66
2022/01/01 06:12:02;;;;;;;12.53;6.70;;;;;;;19.53;45.02;98499.27;1782409;79;21079;-67
2022/01/01 06:14:29;;;;;;;14.87;8.85;;;;;;;19.46;45.00;98498.64;1775319;78;21127;-66
2022/01/01 06:16:55;;;;;;;19.27;10.05;;;;;;;19.46;44.87;98505.38;1734958;81;20943;-66
2022/01/01 06:19:22;;;;;;;20.05;11.38;;;;;;;19.28;45.18;98506.18;1764313;80;20983;-66
2022/01/01 06:21:49;;;;;;;23.40;12.35;;;;;;;19.24;45.39;98511.24;1777778;78;21059;-66
2022/01/01 06:24:15;;;;;;;20.57;12.47;;;;;;;19.25;45.54;98514.23;1771691;78;20979;-69
2022/01/01 06:26:42;;;;;;;20.45;12.15;;;;;;;19.30;45.51;98516.17;1774853;78;21155;-67
2022/01/01 06:29:09;;;;;;;18.20;10.48;;;;;;;19.27;45.66;98521.53;1777739;78;20994;-70
2022/01/01 06:31:35;;;;;;;10.35;7.15;;;;;;;19.38;45.40;98526.05;1778244;80;21452;-68
2022/01/01 06:34:01;;;;;;;9.48;6.30;;;;;;;19.39;45.36;98530.37;1775293;78;21177;-66
2022/01/01 06:36:28;;;;;;;8.75;5.97;;;;;;;19.34;45.53;98526.77;1754912;78;20970;-68
2022/01/01 06:38:54;;;;;;;6.70;4.75;;;;;;;19.34;45.37;98535.68;1783579;78;21772;-67
2022/01/01 06:41:24;;;;;;;6.25;3.85;;;;;;;19.21;45.55;98545.47;1737446;80;20979;-69
2022/01/01 06:43:50;;;;;;;3.83;3.05;;;;;;;19.17;45.64;98551.05;1776997;78;21474;-68
2022/01/01 06:46:16;;;;;;;4.37;2.75;;;;;;;19.16;45.60;98545.40;1775902;78;20903;-67
2022/01/01 06:48:43;;;;;;;4.22;3.58;;;;;;;19.10;45.68;98535.59;1778738;78;21486;-66
2022/01/01 06:51:09;;;;;;;7.08;4.35;;;;;;;19.08;45.76;98537.73;1770033;79;22077;-66
2022/01/01 06:53:36;;;;;;;6.22;4.47;;;;;;;19.08;45.84;98543.91;1773851;78;20873;-76
2022/01/01 06:56:05;;;;;;;8.23;5.72;;;;;;;19.12;45.76;98550.98;1741020;81;20987;-66
2022/01/01 06:58:31;;;;;;;10.90;6.15;;;;;;;19.05;45.95;98553.86;1777628;78;21017;-66
2022/01/01 07:00:58;;;;;;;9.10;5.62;;;;;;;19.08;45.97;98549.30;1774127;78;21613;-67
2022/01/01 07:03:26;;;;;;;7.50;5.00;;;;;;;19.18;45.82;98545.14;1738381;81;20870;-66
2022/01/01 07:05:53;;;;;;;8.35;5.58;;;;;;;19.05;45.91;98555.73;1799387;79;20898;-67
2022/01/01 07:08:20;;;;;;;8.65;4.80;;;;;;;19.03;46.02;98558.66;1808172;78;20923;-66
2022/01/01 07:10:48;;;;;;;7.83;4.70;;;;;;;19.06;45.96;98560.87;1809322;78;20987;-66
2022/01/01 07:13:16;;;;;;;6.28;4.25;;;;;;;19.04;45.92;98564.88;1796536;79;21060;-66
2022/01/01 07:15:43;;;;;;;8.85;4.85;;;;;;;19.05;45.84;98564.64;1780818;78;21145;-65
2022/01/01 07:18:10;;;;;;;9.85;4.83;;;;;;;19.03;45.94;98565.95;1793554;79;20973;-66
2022/01/01 07:20:37;;;;;;;10.18;6.03;;;;;;;19.13;45.82;98571.50;1810048;79;20828;-67
2022/01/01 07:23:04;;;;;;;7.55;5.28;;;;;;;19.22;45.54;98571.88;1801051;78;20994;-66
2022/01/01 07:25:31;;;;;;;8.20;5.40;;;;;;;19.21;45.51;98558.95;1790894;78;21034;-68
2022/01/01 07:27:57;;;;;;;7.35;4.42;;;;;;;19.10;45.71;98565.25;1797504;78;21777;-66
2022/01/01 07:30:23;;;;;;;6.40;4.55;;;;;;;19.06;45.70;98563.56;1804850;78;21032;-68
2022/01/01 07:32:50;;;;;;;7.28;4.75;;;;;;;18.99;45.89;98575.05;1797905;79;21001;-65
2022/01/01 07:35:17;;;;;;;8.23;4.20;;;;;;;19.03;45.78;98576.73;1806084;78;20969;-66
2022/01/01 07:37:44;;;;;;;6.78;3.90;;;;;;;19.03;45.83;98582.92;1779916;78;21530;-65
2022/01/01 07:40:15;;;;;;;7.47;3.40;;;;;;;19.10;45.76;98590.33;1792378;79;21091;-66
2022/01/01 07:42:45;;;;;;;7.00;3.72;;;;;;;19.15;45.65;98594.98;1754703;79;21424;-66
2022/01/01 07:45:14;;;;;;;5.03;3.70;;;;;;;19.21;45.43;98603.96;1805969;78;20966;-66
2022/01/01 07:47:43;;;;;;;5.85;4.25;;;;;;;19.21;45.37;98595.88;1794295;79;21030;-68
2022/01/01 07:50:11;;;;;;;8.98;4.62;;;;;;;19.32;45.19;98601.70;1804191;79;21018;-66
2022/01/01 07:52:38;;;;;;;8.85;5.92;;;;;;;19.32;45.15;98593.06;1801533;78;21599;-66
2022/01/01 07:55:06;;;;;;;7.75;5.22;;;;;;;19.32;45.19;98598.45;1806722;78;21422;-65
2022/01/01 07:57:33;;;;;;;8.33;4.85;;;;;;;19.34;45.22;98597.70;1804965;79;20927;-66
2022/01/01 08:00:00;;;;;;;6.45;4.20;;;;;;;19.35;45.20;98602.02;1800615;79;20922;-67
2022/01/01 08:02:26;;;;;;;4.45;3.20;;;;;;;19.35;45.25;98609.28;1799209;78;21449;-67
2022/01/01 08:04:52;;;;;;;2.87;2.27;;;;;;;19.39;45.31;98616.68;1804112;78;21079;-68
2022/01/01 08:07:19;;;;;;;2.50;2.10;;;;;;;19.44;45.29;98619.45;1796638;79;20915;-66
2022/01/01 08:09:48;;;;;;;2.75;2.35;;;;;;;19.50;45.14;98622.48;1792195;79;21411;-66
2022/01/01 08:12:16;;;;;;;4.55;2.77;;;;;;;19.58;45.04;98618.02;1791791;79;21422;-67
2022/01/01 08:14:45;;;;;;;2.83;2.10;;;;;;;19.73;44.83;98622.00;1795689;79;20963;-65
2022/01/01 08:17:16;;;;;;;3.08;2.10;;;;;;;19.75;44.63;98631.48;1784912;79;21177;-66
2022/01/01 08:19:46;;;;;;;2.35;2.15;;;;;;;19.68;44.59;98633.55;1787403;79;20926;-64
2022/01/01 08:22:13;;;;;;;3.12;2.25;;;;;;;19.66;44.69;98632.44;1799965;79;20923;-68
2022/01/01 08:24:41;;;;;;;2.80;2.40;;;;;;;19.64;44.67;98633.22;1794189;79;21014;-65
2022/01/01 08:27:10;;;;;;;1.87;1.77;;;;;;;19.64;44.50;98631.88;1801945;79;21373;-66
2022/01/01 08:29:36;;;;;;;2.00;1.80;;;;;;;19.57;44.65;98636.63;1753894;81;21137;-66
2022/01/01 08:32:06;;;;;;;2.42;2.22;;;;;;;19.56;44.63;98648.48;1769190;80;21060;-67
2022/01/01 08:34:33;;;;;;;2.70;1.90;;;;;;;19.52;44.71;98658.67;1753317;80;21021;-68
2022/01/01 08:36:59;;;;;;;4.60;2.08;;;;;;;19.54;44.68;98661.41;1757919;80;21665;-67
2022/01/01 08:39:26;;;;;;;2.27;2.10;;;;;;;19.58;44.63;98661.18;1770994;80;21453;-66
2022/01/01 08:41:52;;;;;;;2.05;1.92;;;;;;;19.63;44.55;98663.16;1791790;79;21129;-68
2022/01/01 08:44:23;;;;;;;2.05;1.75;;;;;;;19.69;44.51;98665.66;1798460;79;20959;-68
2022/01/01 08:46:50;;;;;;;2.50;2.30;;;;;;;19.77;44.55;98671.17;1754101;81;20947;-68
2022/01/01 08:49:17;;;;;;;2.90;2.60;;;;;;;19.90;44.35;98675.39;1757418;81;20880;-68
2022/01/01 08:51:45;;;;;;;3.72;2.37;;;;;;;19.99;44.31;98674.73;1743592;81;21489;-67
2022/01/01 08:54:13;;;;;;;1.75;1.65;;;;;;;20.11;44.06;98681.34;1721161;82;21649;-66
2022/01/01 08:56:39;;;;;;;2.10;1.55;;;;;;;20.18;44.01;98677.91;1726422;82;21501;-66
2022/01/01 08:59:06;;;;;;;3.15;1.60;;;;;;;20.17;43.95;98679.00;1727170;82;21462;-67
2022/01/01 09:01:33;;;;;;;1.90;1.55;;;;;;;20.19;44.01;98675.51;1728336;81;20957;-65
2022/01/01 09:04:03;;;;;;;2.90;1.77;;;;;;;20.38;43.88;98674.16;1759651;80;21015;-68
2022/01/01 09:06:32;;;;;;;2.30;1.85;;;;;;;20.51;43.79;98673.77;1734364;80;21131;-66
2022/01/01 09:08:59;;;;;;;1.65;1.55;;;;;;;20.69;43.49;98677.48;1762311;81;20978;-66
2022/01/01 09:11:30;;;;;;;1.55;1.32;;;;;;;20.79;43.30;98673.53;1748937;80;20883;-65
2022/01/01 09:13:59;;;;;;;2.30;1.55;;;;;;;20.83;43.15;98677.90;1756916;81;20958;-70
2022/01/01 09:16:29;;;;;;;4.00;1.80;;;;;;;20.78;43.33;98680.52;1745753;81;21062;-66
2022/01/01 09:18:56;;;;;;;2.00;1.60;;;;;;;20.64;43.29;98676.61;1793785;79;21647;-66
2022/01/01 09:21:23;;;;;;;3.33;1.60;;;;;;;20.67;43.22;98675.58;1794690;79;21512;-66
2022/01/01 09:23:52;;;;;;;3.15;1.60;;;;;;;20.74;42.97;98669.95;1784256;79;21044;-71
2022/01/01 09:26:20;;;;;;;2.00;1.82;;;;;;;20.76;42.83;98672.68;1782997;79;21022;-65
2022/01/01 09:28:46;;;;;;;2.52;1.98;;;;;;;20.76;42.71;98665.10;1747677;80;21465;-75
2022/01/01 09:31:14;;;;;;;1.85;1.70;;;;;;;20.73;42.57;98671.83;1747034;80;21034;-67
2022/01/01 09:33:46;;;;;;;2.12;1.92;;;;;;;20.61;42.79;98665.77;1742206;80;20986;-66
2022/01/01 09:36:17;;;;;;;2.17;1.85;;;;;;;20.66;42.57;98667.70;1715272;82;20999;-67
2022/01/01 09:38:42;;;;;;;2.30;2.10;;;;;;;20.68;42.49;98662.85;1796433;79;21375;-67
2022/01/01 09:41:09;;;;;;;1.45;1.35;;;;;;;20.54;42.55;98664.34;1783795;79;21045;-66
2022/01/01 09:43:39;;;;;;;1.57;1.30;;;;;;;20.50;42.83;98668.08;1784150;79;21152;-68
2022/01/01 09:46:06;;;;;;;1.85;1.52;;;;;;;20.49;42.79;98669.13;1789100;79;21028;-69
2022/01/01 09:48:33;;;;;;;1.62;1.52;;;;;;;20.48;42.71;98658.59;1789612;79;21456;-69
2022/01/01 09:51:03;;;;;;;1.42;1.30;;;;;;;20.45;42.83;98653.16;1753848;81;21031;-73
2022/01/01 09:53:33;;;;;;;1.60;1.50;;;;;;;20.41;42.81;98661.50;1759335;81;21028;-72
2022/01/01 09:56:02;;;;;;;2.67;1.80;;;;;;;20.58;42.75;98652.77;1733946;80;21481;-70
2022/01/01 09:58:32;;;;;;;2.27;1.45;;;;;;;21.13;42.82;98650.34;1756702;81;20856;-68
2022/01/01 10:00:59;;;;;;;2.55;2.35;;;;;;;22.34;42.09;98644.32;1747811;80;21035;-69
2022/01/01 10:03:44;;;;;;;1.80;1.70;;;;;;;23.62;40.38;98628.17;1762224;81;20939;-67
2022/01/01 10:06:19;;;;;;;0.90;0.90;;;;;;;24.61;38.42;98624.56;1762010;81;21453;-67
2022/01/01 10:08:59;;;;;;;0.80;0.80;;;;;;;25.81;37.27;98622.50;1741035;81;21851;-64
2022/01/01 10:11:26;;;;;;;0.85;0.85;;;;;;;26.92;34.86;98623.23;1755298;80;20984;-66
2022/01/01 10:13:53;;;;;;;1.40;1.20;;;;;;;27.20;33.59;98616.77;1730605;80;21509;-68
2022/01/01 10:16:24;;;;;;;0.78;0.78;;;;;;;27.45;32.28;98624.55;1732547;80;21062;-68
2022/01/01 10:18:53;;;;;;;1.92;1.10;;;;;;;27.13;32.08;98632.73;1748225;81;20970;-68
2022/01/01 10:21:27;;;;;;;1.45;1.15;;;;;;;26.74;32.31;98635.77;1756320;81;20983;-69
2022/01/01 10:23:55;;;;;;;1.82;1.35;;;;;;;26.31;32.60;98645.88;1750855;80;21485;-70
2022/01/01 10:29:23;;;;;;;1.40;1.30;;;;;;;25.05;33.43;98644.95;1755122;81;21089;-68
2022/01/01 10:32:09;;;;;;;2.05;1.60;;;;;;;24.34;34.17;98645.36;1745210;81;20987;-71
2022/01/01 10:34:43;;;;;;;1.65;1.50;;;;;;;23.64;34.85;98649.63;1761890;81;25044;-69
2022/01/01 10:37:11;;;;;;;1.60;1.50;;;;;;;23.06;35.52;98651.81;1761161;81;21525;-67
2022/01/01 10:39:58;;;;;;;1.75;1.65;;;;;;;22.50;36.17;98648.71;1762650;80;21442;-69
2022/01/01 10:42:25;;;;;;;4.92;4.47;;;;;;;22.07;36.82;98653.42;1737964;80;20907;-67
2022/01/01 10:44:52;;;;;;;3.17;2.87;;;;;;;21.87;37.35;98651.98;1763626;81;21026;-70
2022/01/01 10:47:27;;;;;;;2.33;1.90;;;;;;;21.73;37.69;98655.36;1728595;82;21152;-68
2022/01/01 10:50:03;;;;;;;1.40;1.30;;;;;;;21.51;37.95;98650.90;1757645;81;20990;-66
2022/01/01 10:52:24;;;;;;;2.47;1.80;;;;;;;21.27;38.36;98638.02;1736634;80;20970;-66
2022/01/01 10:55:06;;;;;;;2.27;2.08;;;;;;;21.21;38.61;98638.52;1759127;80;21007;-70
2022/01/01 10:57:36;;;;;;;1.57;1.47;;;;;;;21.23;38.76;98635.53;1760087;80;21014;-67
2022/01/01 11:00:22;;;;;;;1.95;1.80;;;;;;;21.29;38.94;98632.62;1761004;80;21830;-68
2022/01/01 11:02:56;;;;;;;2.75;2.55;;;;;;;21.38;38.96;98635.11;1759474;81;21539;-69
2022/01/01 11:05:32;;;;;;;2.40;2.20;;;;;;;21.35;38.87;98626.72;1728297;82;21047;-68
2022/01/01 11:07:59;;;;;;;3.72;2.77;;;;;;;21.22;38.88;98629.87;1772827;80;21031;-69
2022/01/01 11:10:26;;;;;;;2.90;2.05;;;;;;;21.14;39.29;98627.64;1757123;80;20891;-68
2022/01/01 11:12:53;;;;;;;1.30;1.20;;;;;;;21.02;39.41;98624.25;1785790;78;21136;-70
2022/01/01 11:15:20;;;;;;;2.83;2.10;;;;;;;21.08;39.71;98620.02;1800349;78;21579;-67
2022/01/01 11:17:47;;;;;;;1.50;1.40;;;;;;;21.15;39.55;98616.55;1797121;78;20977;-64
2022/01/01 11:20:15;;;;;;;1.42;1.32;;;;;;;21.09;39.37;98620.84;1792285;78;21406;-68
2022/01/01 11:22:42;;;;;;;1.72;1.52;;;;;;;20.94;39.41;98617.42;1796399;79;21091;-70
2022/01/01 11:25:10;;;;;;;1.32;1.00;;;;;;;20.76;39.52;98635.38;1787049;78;21650;-66
2022/01/01 11:27:38;;;;;;;1.87;1.77;;;;;;;20.66;39.64;98632.05;1805437;78;21056;-68
2022/01/01 11:30:07;;;;;;;1.67;1.45;;;;;;;20.43;39.82;98634.23;1796001;78;21018;-71
2022/01/01 11:32:52;;;;;;;1.57;1.10;;;;;;;20.33;39.95;98646.53;1797845;78;20954;-70
2022/01/01 11:35:22;;;;;;;1.15;1.05;;;;;;;20.29;39.95;98641.38;1792563;78;20942;-69
2022/01/01 11:38:03;;;;;;;1.77;1.45;;;;;;;20.14;40.08;98643.05;1771383;80;21131;-68
2022/01/01 11:40:55;;;;;;;1.62;1.22;;;;;;;19.99;40.29;98647.73;1798581;79;20934;-68
2022/01/01 11:43:43;;;;;;;1.22;1.12;;;;;;;19.83;40.42;98645.07;1795026;78;20950;-69